createdAt,value
2023-05-29T00:02:15.250Z,16.59
2023-05-29T00:04:42.835Z,16.54
2023-05-29T00:07:10.470Z,16.42
2023-05-29T00:09:37.676Z,16.46
2023-05-29T00:12:07.025Z,16.53
2023-05-29T00:14:34.478Z,16.55
2023-05-29T00:17:03.870Z,16.65
2023-05-29T00:19:31.131Z,16.57
2023-05-29T00:21:58.741Z,16.37
2023-05-29T00:24:26.241Z,16.33
2023-05-29T00:26:53.883Z,16.25
2023-05-29T00:29:23.424Z,16.30
2023-05-29T00:31:51.211Z,16.32
2023-05-29T00:34:18.654Z,16.45
2023-05-29T00:36:46.340Z,16.52
2023-05-29T00:39:13.812Z,16.62
2023-05-29T00:41:41.499Z,16.46
2023-05-29T00:44:09.008Z,16.20
2023-05-29T00:46:37.129Z,16.16
2023-05-29T00:49:06.725Z,16.33
2023-05-29T00:51:34.319Z,16.37
2023-05-29T00:54:02.023Z,16.34
2023-05-29T00:56:29.824Z,16.17
2023-05-29T00:58:57.190Z,16.14
2023-05-29T01:01:28.226Z,16.17
2023-05-29T01:04:02.431Z,16.01
2023-05-29T01:06:30.556Z,15.91
2023-05-29T01:08:57.911Z,15.85
2023-05-29T01:11:47.801Z,16.06
2023-05-29T01:14:30.635Z,15.99
2023-05-29T01:17:12.999Z,15.87
2023-05-29T01:20:28.577Z,15.91
2023-05-29T01:23:29.268Z,16.04
2023-05-29T01:26:02.599Z,16.12
2023-05-29T01:28:38.801Z,16.09
2023-05-29T01:31:08.456Z,16.13
2023-05-29T01:33:41.384Z,16.16
2023-05-29T01:36:10.100Z,16.31
2023-05-29T01:38:37.991Z,16.31
2023-05-29T01:41:06.067Z,16.37
2023-05-29T01:43:34.224Z,16.29
2023-05-29T01:46:02.270Z,16.22
2023-05-29T01:48:31.461Z,16.23
2023-05-29T01:50:59.699Z,16.22
2023-05-29T01:53:27.439Z,16.09
2023-05-29T01:55:55.020Z,16.11
2023-05-29T01:58:23.154Z,15.94
2023-05-29T02:00:50.915Z,15.80
2023-05-29T02:03:18.749Z,15.71
2023-05-29T02:05:46.120Z,15.73
2023-05-29T02:08:13.815Z,15.77
2023-05-29T02:10:41.232Z,15.82
2023-05-29T02:13:08.898Z,15.98
2023-05-29T02:15:36.642Z,15.91
2023-05-29T02:18:04.452Z,15.92
2023-05-29T02:20:32.027Z,16.09
2023-05-29T02:22:59.868Z,16.20
2023-05-29T02:25:27.176Z,16.17
2023-05-29T02:27:54.826Z,16.08
2023-05-29T02:30:22.163Z,16.07
2023-05-29T02:32:49.779Z,16.07
2023-05-29T02:35:18.459Z,16.02
2023-05-29T02:37:47.019Z,16.05
2023-05-29T02:40:17.643Z,16.08
2023-05-29T02:42:45.950Z,16.10
2023-05-29T02:45:13.492Z,16.39
2023-05-29T02:47:41.222Z,16.30
2023-05-29T02:50:09.686Z,16.36
2023-05-29T02:52:41.068Z,16.37
2023-05-29T02:55:08.708Z,16.12
2023-05-29T02:57:36.863Z,16.15
2023-05-29T03:00:09.591Z,16.19
2023-05-29T03:02:37.484Z,16.03
2023-05-29T03:05:05.115Z,15.88
2023-05-29T03:07:33.677Z,16.03
2023-05-29T03:10:01.252Z,16.01
2023-05-29T03:12:29.141Z,15.96
2023-05-29T03:14:57.684Z,16.10
2023-05-29T03:17:27.253Z,16.11
2023-05-29T03:19:54.987Z,16.06
2023-05-29T03:22:23.117Z,16.12
2023-05-29T03:24:50.571Z,16.25
2023-05-29T03:27:18.131Z,16.19
2023-05-29T03:29:46.707Z,16.16
2023-05-29T03:32:14.673Z,16.29
2023-05-29T03:34:41.984Z,16.28
2023-05-29T03:37:09.905Z,16.35
2023-05-29T03:39:37.247Z,16.38
2023-05-29T03:42:07.434Z,16.54
2023-05-29T03:44:34.861Z,16.46
2023-05-29T03:47:02.713Z,16.47
2023-05-29T03:49:32.604Z,16.53
2023-05-29T03:52:00.971Z,16.57
2023-05-29T03:54:28.305Z,16.54
2023-05-29T03:56:56.534Z,16.76
2023-05-29T03:59:26.642Z,16.77
2023-05-29T04:01:54.640Z,16.74
2023-05-29T04:04:22.129Z,16.72
2023-05-29T04:06:49.731Z,16.74
2023-05-29T04:09:17.110Z,16.74
2023-05-29T04:11:45.957Z,16.77
2023-05-29T04:14:13.355Z,16.70
2023-05-29T04:16:41.755Z,16.65
2023-05-29T04:19:09.211Z,16.70
2023-05-29T04:21:37.463Z,16.67
2023-05-29T04:24:06.022Z,16.62
2023-05-29T04:26:34.078Z,16.48
2023-05-29T04:29:01.941Z,16.36
2023-05-29T04:31:31.761Z,16.25
2023-05-29T04:34:01.906Z,16.26
2023-05-29T04:36:29.690Z,16.23
2023-05-29T04:39:08.784Z,16.43
2023-05-29T04:41:37.087Z,16.59
2023-05-29T04:44:06.714Z,16.73
2023-05-29T04:46:45.699Z,16.85
2023-05-29T04:49:17.188Z,16.82
2023-05-29T04:51:45.756Z,16.73
2023-05-29T04:54:13.393Z,16.71
2023-05-29T04:56:42.461Z,16.87
2023-05-29T04:59:12.332Z,16.76
2023-05-29T05:01:40.693Z,16.88
2023-05-29T05:04:08.248Z,16.76
2023-05-29T05:06:35.920Z,17.00
2023-05-29T05:09:03.387Z,17.08
2023-05-29T05:11:31.778Z,17.25
2023-05-29T05:14:00.564Z,17.34
2023-05-29T05:16:29.203Z,17.45
2023-05-29T05:18:56.646Z,17.37
2023-05-29T05:21:25.035Z,17.52
2023-05-29T05:23:58.385Z,17.31
2023-05-29T05:26:28.637Z,17.45
2023-05-29T05:28:56.788Z,17.54
2023-05-29T05:31:26.850Z,17.63
2023-05-29T05:33:54.433Z,17.61
2023-05-29T05:36:22.490Z,17.74
2023-05-29T05:38:56.054Z,17.83
2023-05-29T05:41:24.367Z,17.84
2023-05-29T05:43:53.352Z,17.94
2023-05-29T05:46:38.792Z,17.95
2023-05-29T05:49:06.450Z,18.03
2023-05-29T05:51:34.122Z,17.98
2023-05-29T05:54:01.601Z,18.04
2023-05-29T05:56:30.246Z,18.11
2023-05-29T05:58:57.907Z,17.96
2023-05-29T06:01:25.901Z,18.21
2023-05-29T06:03:53.772Z,18.24
2023-05-29T06:06:21.661Z,18.34
2023-05-29T06:08:51.184Z,18.40
2023-05-29T06:11:18.963Z,18.49
2023-05-29T06:13:47.305Z,18.65
2023-05-29T06:16:29.061Z,18.74
2023-05-29T06:18:56.596Z,18.78
2023-05-29T06:21:25.288Z,18.64
2023-05-29T06:23:54.513Z,18.74
2023-05-29T06:26:26.195Z,18.83
2023-05-29T06:28:55.032Z,19.21
2023-05-29T06:31:22.720Z,19.49
2023-05-29T06:33:50.484Z,19.62
2023-05-29T06:36:18.464Z,19.67
2023-05-29T06:38:52.265Z,19.73
2023-05-29T06:41:20.266Z,19.77
2023-05-29T06:43:47.778Z,20.03
2023-05-29T06:46:15.981Z,20.06
2023-05-29T06:48:43.546Z,20.08
2023-05-29T06:51:13.268Z,19.99
2023-05-29T06:53:40.954Z,20.16
2023-05-29T06:56:10.190Z,19.92
2023-05-29T06:58:37.553Z,20.32
2023-05-29T07:01:08.423Z,20.48
2023-05-29T07:03:38.472Z,20.47
2023-05-29T07:06:07.648Z,20.88
2023-05-29T07:08:35.513Z,20.73
2023-05-29T07:11:03.593Z,21.25
2023-05-29T07:13:31.163Z,21.42
2023-05-29T07:15:59.655Z,21.59
2023-05-29T07:18:33.657Z,21.10
2023-05-29T07:21:02.851Z,21.14
2023-05-29T07:23:31.911Z,21.51
2023-05-29T07:26:00.128Z,21.76
2023-05-29T07:28:30.421Z,21.68
2023-05-29T07:30:58.340Z,21.85
2023-05-29T07:33:26.559Z,21.80
2023-05-29T07:35:57.126Z,22.18
2023-05-29T07:38:25.887Z,22.80
2023-05-29T07:40:54.107Z,23.09
2023-05-29T07:43:42.183Z,23.69
2023-05-29T07:46:10.993Z,24.09
2023-05-29T07:48:41.332Z,24.14
2023-05-29T07:51:11.048Z,23.12
2023-05-29T07:53:41.406Z,23.28
2023-05-29T07:56:09.385Z,23.12
2023-05-29T07:58:36.745Z,23.07
2023-05-29T08:01:06.451Z,23.62
2023-05-29T08:03:34.893Z,24.63
2023-05-29T08:06:23.007Z,24.88
2023-05-29T08:09:09.361Z,25.25
2023-05-29T08:11:38.179Z,24.30
2023-05-29T08:14:05.587Z,24.51
2023-05-29T08:16:51.974Z,24.98
2023-05-29T08:19:19.382Z,25.12
2023-05-29T08:21:47.352Z,25.97
2023-05-29T08:24:15.480Z,26.44
2023-05-29T08:26:44.793Z,25.01
2023-05-29T08:29:12.293Z,24.45
2023-05-29T08:31:41.164Z,25.09
2023-05-29T08:34:08.864Z,25.94
2023-05-29T08:36:36.538Z,26.09
2023-05-29T08:39:03.909Z,26.38
2023-05-29T08:42:02.617Z,26.37
2023-05-29T08:44:32.452Z,26.33
2023-05-29T08:47:04.452Z,26.32
2023-05-29T08:49:41.466Z,26.62
2023-05-29T08:52:21.109Z,26.95
2023-05-29T08:54:48.513Z,26.74
2023-05-29T08:57:16.469Z,27.07
2023-05-29T08:59:46.013Z,25.75
2023-05-29T09:02:13.760Z,25.92
2023-05-29T09:04:43.288Z,26.89
2023-05-29T09:07:10.928Z,27.28
2023-05-29T09:09:38.829Z,27.66
2023-05-29T09:12:06.823Z,27.83
2023-05-29T09:14:38.193Z,27.67
2023-05-29T09:17:07.451Z,27.06
2023-05-29T09:19:35.213Z,26.10
2023-05-29T09:22:11.834Z,26.04
2023-05-29T09:24:39.945Z,25.87
2023-05-29T09:27:09.714Z,25.09
2023-05-29T09:29:43.136Z,25.18
2023-05-29T09:32:16.877Z,25.74
2023-05-29T09:34:45.100Z,26.59
2023-05-29T09:37:14.977Z,26.12
2023-05-29T09:39:43.356Z,26.68
2023-05-29T09:42:11.243Z,26.26
2023-05-29T09:44:39.006Z,26.90
2023-05-29T09:47:07.703Z,26.92
2023-05-29T09:49:35.512Z,27.20
2023-05-29T09:52:03.238Z,27.93
2023-05-29T09:54:31.189Z,26.17
2023-05-29T09:57:02.250Z,26.30
2023-05-29T09:59:30.813Z,26.78
2023-05-29T10:02:09.155Z,26.43
2023-05-29T10:04:36.649Z,25.92
2023-05-29T10:07:29.171Z,25.94
2023-05-29T10:10:03.422Z,26.17
2023-05-29T10:12:35.786Z,25.99
2023-05-29T10:15:03.887Z,25.56
2023-05-29T10:17:34.985Z,25.51
2023-05-29T10:20:10.650Z,26.61
2023-05-29T10:22:49.433Z,26.25
2023-05-29T10:25:20.332Z,26.74
2023-05-29T10:27:49.384Z,27.58
2023-05-29T10:30:30.874Z,27.31
2023-05-29T10:33:08.264Z,27.08
2023-05-29T10:36:01.503Z,26.98
2023-05-29T10:38:29.415Z,26.85
2023-05-29T10:40:58.036Z,26.98
2023-05-29T10:43:36.431Z,26.60
2023-05-29T10:46:04.272Z,26.50
2023-05-29T10:48:39.464Z,27.11
2023-05-29T10:51:10.531Z,27.60
2023-05-29T10:53:42.169Z,27.68
2023-05-29T10:56:12.211Z,27.73
2023-05-29T10:58:40.005Z,28.17
2023-05-29T11:01:10.403Z,27.67
2023-05-29T11:03:39.407Z,28.34
2023-05-29T11:06:12.112Z,28.05
2023-05-29T11:09:36.549Z,27.52
2023-05-29T11:12:27.026Z,27.79
2023-05-29T11:14:57.342Z,27.33
2023-05-29T11:17:47.925Z,26.91
2023-05-29T11:20:34.884Z,27.08
2023-05-29T11:23:07.523Z,27.35
2023-05-29T11:25:38.657Z,27.36
2023-05-29T11:28:11.827Z,28.22
2023-05-29T11:31:02.032Z,28.71
2023-05-29T11:33:29.882Z,28.55
2023-05-29T11:35:59.925Z,28.74
2023-05-29T11:38:28.649Z,29.16
2023-05-29T11:40:57.318Z,29.43
2023-05-29T11:43:26.230Z,29.90
2023-05-29T11:45:54.312Z,30.21
2023-05-29T11:48:23.038Z,30.51
2023-05-29T11:50:51.350Z,30.36
2023-05-29T11:53:18.723Z,30.21
2023-05-29T11:55:46.564Z,29.15
2023-05-29T11:58:14.122Z,29.34
2023-05-29T12:00:43.274Z,29.10
2023-05-29T12:03:11.298Z,28.64
2023-05-29T12:05:50.743Z,28.73
2023-05-29T12:08:18.549Z,28.70
2023-05-29T12:10:50.398Z,28.12
2023-05-29T12:13:21.128Z,28.59
2023-05-29T12:15:50.557Z,28.60
2023-05-29T12:18:18.171Z,27.87
2023-05-29T12:20:46.318Z,27.51
2023-05-29T12:23:14.421Z,27.04
2023-05-29T12:25:44.351Z,26.83
2023-05-29T12:28:20.713Z,26.73
2023-05-29T12:30:51.121Z,26.85
2023-05-29T12:33:29.162Z,26.10
2023-05-29T12:36:06.217Z,26.35
2023-05-29T12:38:34.428Z,25.85
2023-05-29T12:41:02.510Z,26.03
2023-05-29T12:43:30.000Z,25.97
2023-05-29T12:45:58.009Z,25.72
2023-05-29T12:48:28.970Z,25.45
2023-05-29T12:50:57.015Z,25.20
2023-05-29T12:53:29.877Z,24.43
2023-05-29T12:55:58.290Z,24.21
2023-05-29T12:58:25.790Z,23.75
2023-05-29T13:00:57.851Z,23.50
2023-05-29T13:03:25.770Z,23.02
2023-05-29T13:05:56.946Z,22.33
2023-05-29T13:08:26.998Z,22.10
2023-05-29T13:10:54.784Z,21.82
2023-05-29T13:13:23.429Z,21.81
2023-05-29T13:15:51.019Z,21.66
2023-05-29T13:18:18.288Z,21.67
2023-05-29T13:20:46.263Z,21.56
2023-05-29T13:23:14.033Z,21.31
2023-05-29T13:25:41.655Z,21.44
2023-05-29T13:28:09.048Z,21.29
2023-05-29T13:30:36.601Z,21.24
2023-05-29T13:33:04.188Z,20.96
2023-05-29T13:35:31.869Z,20.78
2023-05-29T13:37:59.247Z,20.69
2023-05-29T13:40:27.322Z,20.55
2023-05-29T13:42:55.082Z,20.63
2023-05-29T13:45:22.712Z,20.56
2023-05-29T13:47:50.125Z,20.58
2023-05-29T13:50:17.850Z,20.48
2023-05-29T13:52:45.664Z,20.28
2023-05-29T13:55:13.347Z,20.16
2023-05-29T13:57:41.360Z,20.04
2023-05-29T14:00:10.487Z,20.01
2023-05-29T14:02:38.809Z,20.02
2023-05-29T14:05:07.326Z,19.97
2023-05-29T14:07:35.126Z,20.16
2023-05-29T14:10:03.112Z,20.14
2023-05-29T14:12:30.698Z,20.24
2023-05-29T14:14:58.368Z,20.24
2023-05-29T14:17:27.332Z,20.34
2023-05-29T14:19:55.076Z,20.26
2023-05-29T14:22:22.390Z,20.12
2023-05-29T14:24:50.465Z,20.06
2023-05-29T14:27:17.813Z,20.05
2023-05-29T14:29:47.269Z,20.11
2023-05-29T14:32:14.700Z,20.24
2023-05-29T14:34:42.375Z,20.25
2023-05-29T14:37:09.748Z,20.31
2023-05-29T14:39:37.313Z,20.34
2023-05-29T14:42:05.101Z,20.34
2023-05-29T14:44:32.839Z,20.48
2023-05-29T14:47:00.350Z,20.40
2023-05-29T14:49:31.021Z,20.39
2023-05-29T14:51:58.474Z,20.39
2023-05-29T14:54:26.256Z,20.47
2023-05-29T14:56:53.630Z,20.44
2023-05-29T14:59:22.323Z,20.47
2023-05-29T15:01:49.936Z,20.46
2023-05-29T15:04:17.974Z,20.50
2023-05-29T15:06:52.190Z,20.61
2023-05-29T15:09:23.325Z,20.67
2023-05-29T15:11:50.669Z,20.72
2023-05-29T15:14:18.546Z,20.71
2023-05-29T15:16:46.648Z,20.76
2023-05-29T15:19:14.387Z,20.79
2023-05-29T15:21:42.014Z,20.75
2023-05-29T15:24:09.640Z,20.67
2023-05-29T15:26:38.136Z,20.72
2023-05-29T15:29:06.159Z,20.64
2023-05-29T15:31:33.625Z,20.60
2023-05-29T15:34:01.360Z,20.59
2023-05-29T15:36:30.102Z,20.58
2023-05-29T15:38:58.112Z,20.69
2023-05-29T15:41:30.105Z,20.52
2023-05-29T15:43:59.498Z,20.54
2023-05-29T15:46:28.371Z,20.60
2023-05-29T15:48:56.062Z,20.48
2023-05-29T15:51:24.165Z,20.63
2023-05-29T15:53:52.375Z,20.72
2023-05-29T15:56:19.625Z,20.62
2023-05-29T15:58:47.213Z,20.53
2023-05-29T16:01:15.379Z,20.51
2023-05-29T16:03:44.408Z,20.44
2023-05-29T16:06:11.834Z,20.39
2023-05-29T16:08:42.086Z,20.37
2023-05-29T16:11:09.634Z,20.24
2023-05-29T16:13:37.755Z,20.28
2023-05-29T16:16:05.577Z,20.36
2023-05-29T16:18:34.752Z,20.41
2023-05-29T16:21:03.335Z,20.42
2023-05-29T16:23:32.147Z,20.48
2023-05-29T16:25:59.941Z,20.41
2023-05-29T16:28:27.588Z,20.39
2023-05-29T16:30:55.620Z,20.38
2023-05-29T16:33:24.837Z,20.37
2023-05-29T16:35:54.217Z,20.41
2023-05-29T16:38:23.412Z,20.44
2023-05-29T16:40:51.216Z,20.32
2023-05-29T16:43:19.227Z,20.35
2023-05-29T16:45:46.604Z,20.23
2023-05-29T16:48:14.538Z,20.09
2023-05-29T16:50:41.868Z,20.19
2023-05-29T16:53:09.547Z,20.09
2023-05-29T16:55:38.651Z,19.97
2023-05-29T16:58:06.586Z,19.87
2023-05-29T17:00:34.441Z,19.95
2023-05-29T17:03:03.615Z,19.87
2023-05-29T17:05:31.268Z,19.72
2023-05-29T17:07:59.150Z,19.64
2023-05-29T17:10:33.346Z,19.78
2023-05-29T17:13:00.983Z,19.78
2023-05-29T17:15:30.014Z,19.67
2023-05-29T17:18:00.683Z,19.77
2023-05-29T17:20:31.099Z,19.66
2023-05-29T17:22:59.952Z,19.78
2023-05-29T17:25:27.679Z,19.77
2023-05-29T17:27:59.104Z,19.76
2023-05-29T17:30:26.776Z,19.85
2023-05-29T17:32:55.575Z,19.83
2023-05-29T17:35:23.016Z,19.90
2023-05-29T17:37:50.749Z,19.79
2023-05-29T17:40:18.897Z,19.64
2023-05-29T17:42:48.172Z,19.59
2023-05-29T17:45:17.447Z,19.43
2023-05-29T17:47:45.264Z,19.34
2023-05-29T17:50:13.034Z,19.19
2023-05-29T17:52:40.931Z,19.21
2023-05-29T17:55:09.687Z,19.18
2023-05-29T17:57:38.057Z,19.12
2023-05-29T18:00:09.646Z,19.07
2023-05-29T18:02:40.796Z,19.00
2023-05-29T18:05:08.725Z,18.94
2023-05-29T18:07:38.565Z,18.92
2023-05-29T18:10:07.007Z,18.99
2023-05-29T18:12:45.150Z,18.91
2023-05-29T18:15:16.393Z,19.02
2023-05-29T18:17:44.776Z,19.02
2023-05-29T18:20:14.397Z,19.03
2023-05-29T18:22:42.282Z,19.11
2023-05-29T18:25:10.763Z,18.98
2023-05-29T18:27:40.590Z,19.03
2023-05-29T18:30:08.592Z,18.94
2023-05-29T18:32:39.280Z,18.88
2023-05-29T18:35:07.559Z,18.82
2023-05-29T18:37:40.342Z,18.85
2023-05-29T18:40:11.047Z,18.79
2023-05-29T18:42:39.401Z,18.95
2023-05-29T18:45:07.274Z,18.87
2023-05-29T18:47:35.399Z,18.93
2023-05-29T18:50:02.913Z,18.98
2023-05-29T18:52:31.615Z,19.02
2023-05-29T18:54:59.443Z,19.01
2023-05-29T18:57:27.323Z,18.98
2023-05-29T18:59:56.492Z,18.97
2023-05-29T19:02:24.246Z,19.05
2023-05-29T19:04:52.016Z,19.00
2023-05-29T19:07:21.039Z,18.93
2023-05-29T19:09:49.341Z,18.74
2023-05-29T19:12:18.313Z,18.59
2023-05-29T19:14:46.384Z,18.65
2023-05-29T19:17:16.204Z,18.61
2023-05-29T19:19:44.483Z,18.61
2023-05-29T19:22:15.067Z,18.63
2023-05-29T19:24:42.691Z,18.57
2023-05-29T19:27:11.904Z,18.66
2023-05-29T19:29:41.437Z,18.67
2023-05-29T19:32:10.110Z,18.64
2023-05-29T19:34:38.036Z,18.58
2023-05-29T19:37:05.942Z,18.57
2023-05-29T19:39:34.745Z,18.42
2023-05-29T19:42:03.724Z,18.37
2023-05-29T19:44:31.385Z,18.41
2023-05-29T19:46:59.283Z,18.16
2023-05-29T19:49:26.766Z,18.16
2023-05-29T19:51:59.348Z,18.14
2023-05-29T19:54:30.918Z,18.00
2023-05-29T19:56:59.210Z,17.94
2023-05-29T19:59:26.532Z,17.96
2023-05-29T20:01:54.250Z,18.02
2023-05-29T20:04:26.961Z,17.89
2023-05-29T20:06:54.689Z,17.81
2023-05-29T20:09:25.168Z,17.65
2023-05-29T20:11:57.283Z,17.69
2023-05-29T20:14:27.510Z,17.59
2023-05-29T20:16:55.339Z,17.53
2023-05-29T20:19:25.846Z,17.54
2023-05-29T20:21:53.771Z,17.50
2023-05-29T20:24:23.824Z,17.31
2023-05-29T20:26:54.045Z,17.26
2023-05-29T20:29:21.907Z,17.30
2023-05-29T20:31:49.704Z,17.31
2023-05-29T20:34:19.376Z,17.35
2023-05-29T20:36:47.114Z,17.39
2023-05-29T20:39:19.722Z,17.49
2023-05-29T20:41:49.541Z,17.37
2023-05-29T20:44:18.261Z,17.30
2023-05-29T20:46:48.830Z,17.30
2023-05-29T20:49:18.245Z,17.34
2023-05-29T20:51:45.981Z,17.31
2023-05-29T20:54:13.575Z,17.32
2023-05-29T20:56:43.467Z,17.22
2023-05-29T20:59:13.525Z,17.11
2023-05-29T21:01:42.682Z,17.16
2023-05-29T21:04:12.106Z,17.13
2023-05-29T21:06:40.406Z,17.25
2023-05-29T21:09:09.029Z,17.03
2023-05-29T21:11:40.163Z,16.88
2023-05-29T21:14:10.398Z,16.78
2023-05-29T21:16:38.492Z,16.85
2023-05-29T21:19:05.950Z,16.92
2023-05-29T21:21:41.240Z,17.05
2023-05-29T21:24:20.164Z,17.07
2023-05-29T21:26:59.847Z,16.84
2023-05-29T21:29:35.946Z,16.79
2023-05-29T21:32:26.279Z,16.61
2023-05-29T21:35:16.951Z,16.80
2023-05-29T21:37:45.480Z,16.86
2023-05-29T21:40:20.571Z,16.91
2023-05-29T21:42:57.227Z,16.86
2023-05-29T21:45:25.802Z,16.87
2023-05-29T21:48:01.097Z,16.83
2023-05-29T21:50:32.707Z,16.80
2023-05-29T21:53:03.575Z,16.57
2023-05-29T21:55:34.592Z,16.47
2023-05-29T21:58:02.097Z,16.53
2023-05-29T22:00:32.651Z,16.49
2023-05-29T22:03:00.551Z,16.31
2023-05-29T22:05:28.449Z,16.15
2023-05-29T22:07:55.932Z,16.09
2023-05-29T22:10:23.881Z,16.12
2023-05-29T22:12:53.792Z,16.10
2023-05-29T22:15:21.671Z,16.24
2023-05-29T22:17:50.761Z,16.49
2023-05-29T22:20:20.118Z,16.66
2023-05-29T22:22:47.993Z,16.56
2023-05-29T22:25:17.255Z,16.44
2023-05-29T22:27:45.169Z,16.39
2023-05-29T22:30:13.114Z,16.37
2023-05-29T22:32:42.784Z,16.60
2023-05-29T22:35:13.855Z,16.33
2023-05-29T22:37:42.175Z,16.16
2023-05-29T22:40:13.633Z,16.01
2023-05-29T22:42:41.179Z,15.89
2023-05-29T22:45:09.808Z,15.82
2023-05-29T22:47:38.527Z,16.08
2023-05-29T22:50:06.906Z,16.20
2023-05-29T22:52:34.986Z,16.13
2023-05-29T22:55:04.042Z,16.00
2023-05-29T22:57:32.720Z,15.76
2023-05-29T23:00:01.289Z,15.59
2023-05-29T23:02:33.445Z,15.65
2023-05-29T23:05:01.796Z,15.73
2023-05-29T23:07:31.293Z,15.87
2023-05-29T23:09:58.993Z,15.76
2023-05-29T23:12:27.897Z,15.65
2023-05-29T23:14:55.920Z,15.56
2023-05-29T23:17:25.124Z,15.78
2023-05-29T23:19:52.983Z,15.89
2023-05-29T23:22:27.134Z,15.82
2023-05-29T23:24:54.717Z,15.74
2023-05-29T23:27:22.250Z,15.68
2023-05-29T23:29:49.988Z,15.78
2023-05-29T23:32:17.566Z,15.77
2023-05-29T23:34:50.001Z,15.70
2023-05-29T23:37:17.512Z,15.84
2023-05-29T23:39:45.202Z,15.92
2023-05-29T23:42:13.149Z,16.10
2023-05-29T23:44:41.011Z,16.10
2023-05-29T23:47:08.535Z,16.04
2023-05-29T23:49:36.305Z,16.29
2023-05-29T23:52:03.838Z,16.38
2023-05-29T23:54:32.244Z,16.36
2023-05-29T23:57:00.504Z,16.42
2023-05-29T23:59:29.413Z,16.30
